createdAt,value
2022-12-08T00:01:31.460Z,17.78
2022-12-08T00:04:53.512Z,17.75
2022-12-08T00:08:14.254Z,17.75
2022-12-08T00:11:17.348Z,17.75
2022-12-08T00:14:20.042Z,17.76
2022-12-08T00:17:22.092Z,17.72
2022-12-08T00:20:24.108Z,17.69
2022-12-08T00:23:26.915Z,17.68
2022-12-08T00:26:29.016Z,17.69
2022-12-08T00:29:31.142Z,17.70
2022-12-08T00:32:33.174Z,17.66
2022-12-08T00:35:40.060Z,17.68
2022-12-08T00:38:45.064Z,17.66
2022-12-08T00:42:05.675Z,17.68
2022-12-08T00:45:08.114Z,17.66
2022-12-08T00:48:10.161Z,17.68
2022-12-08T00:51:12.173Z,17.64
2022-12-08T00:54:14.485Z,17.61
2022-12-08T00:57:16.502Z,17.59
2022-12-08T01:00:18.925Z,17.60
2022-12-08T01:03:21.060Z,17.59
2022-12-08T01:06:23.342Z,17.55
2022-12-08T01:09:25.373Z,17.54
2022-12-08T01:12:31.002Z,17.54
2022-12-08T01:15:33.122Z,17.51
2022-12-08T01:18:35.710Z,17.51
2022-12-08T01:21:38.009Z,17.50
2022-12-08T01:24:40.118Z,17.50
2022-12-08T01:27:42.101Z,17.50
2022-12-08T01:30:44.248Z,17.49
2022-12-08T01:33:46.924Z,17.45
2022-12-08T01:36:48.939Z,17.44
2022-12-08T01:39:50.936Z,17.44
2022-12-08T01:42:53.125Z,17.44
2022-12-08T01:45:55.193Z,17.41
2022-12-08T01:49:06.406Z,17.39
2022-12-08T01:52:26.568Z,17.37
2022-12-08T01:55:36.813Z,17.38
2022-12-08T01:58:44.021Z,17.36
2022-12-08T02:01:46.277Z,17.36
2022-12-08T02:04:48.419Z,17.33
2022-12-08T02:07:51.684Z,17.35
2022-12-08T02:10:53.808Z,17.33
2022-12-08T02:13:57.322Z,17.32
2022-12-08T02:17:19.219Z,17.30
2022-12-08T02:20:56.143Z,17.28
2022-12-08T02:24:22.779Z,17.28
2022-12-08T02:27:56.854Z,17.25
2022-12-08T02:31:28.267Z,17.25
2022-12-08T02:34:32.417Z,17.22
2022-12-08T02:37:57.294Z,17.22
2022-12-08T02:41:25.929Z,17.21
2022-12-08T02:44:43.171Z,17.22
2022-12-08T02:47:45.599Z,17.21
2022-12-08T02:50:47.766Z,17.19
2022-12-08T02:53:50.257Z,17.19
2022-12-08T02:57:38.452Z,17.17
2022-12-08T03:00:58.595Z,17.15
2022-12-08T03:04:29.203Z,17.15
2022-12-08T03:08:22.234Z,17.13
2022-12-08T03:11:40.394Z,17.10
2022-12-08T03:14:51.258Z,17.10
2022-12-08T03:17:57.268Z,17.10
2022-12-08T03:21:00.059Z,17.07
2022-12-08T03:24:05.965Z,17.05
2022-12-08T03:27:13.321Z,17.06
2022-12-08T03:30:15.541Z,17.06
2022-12-08T03:33:28.521Z,17.03
2022-12-08T03:36:30.627Z,17.03
2022-12-08T03:39:32.667Z,17.01
2022-12-08T03:42:34.718Z,17.00
2022-12-08T03:45:37.006Z,16.99
2022-12-08T03:48:39.049Z,16.98
2022-12-08T03:51:41.099Z,16.95
2022-12-08T03:54:43.125Z,16.95
2022-12-08T03:57:45.229Z,16.92
2022-12-08T04:00:47.253Z,16.93
2022-12-08T04:03:49.700Z,16.92
2022-12-08T04:06:51.770Z,16.91
2022-12-08T04:09:53.787Z,16.89
2022-12-08T04:12:57.158Z,16.88
2022-12-08T04:15:59.232Z,16.87
2022-12-08T04:19:01.351Z,16.85
2022-12-08T04:22:03.406Z,16.84
2022-12-08T04:25:06.041Z,16.86
2022-12-08T04:28:08.110Z,16.82
2022-12-08T04:31:10.186Z,16.84
2022-12-08T04:34:12.363Z,16.82
2022-12-08T04:37:14.401Z,16.81
2022-12-08T04:40:16.631Z,16.86
2022-12-08T04:43:18.818Z,16.93
2022-12-08T04:46:20.940Z,17.06
2022-12-08T04:49:23.541Z,17.17
2022-12-08T04:52:25.568Z,17.28
2022-12-08T04:55:27.604Z,17.36
2022-12-08T04:58:29.625Z,17.46
2022-12-08T05:01:31.706Z,17.50
2022-12-08T05:04:33.953Z,17.56
2022-12-08T05:07:36.152Z,17.66
2022-12-08T05:10:38.759Z,17.72
2022-12-08T05:13:41.092Z,17.76
2022-12-08T05:16:44.348Z,17.75
2022-12-08T05:19:46.438Z,17.82
2022-12-08T05:22:48.527Z,17.91
2022-12-08T05:25:50.607Z,17.99
2022-12-08T05:28:52.729Z,18.00
2022-12-08T05:31:54.903Z,17.99
2022-12-08T05:34:56.965Z,17.97
2022-12-08T05:37:59.096Z,18.03
2022-12-08T05:41:01.162Z,18.10
2022-12-08T05:44:03.369Z,18.18
2022-12-08T05:47:05.476Z,18.17
2022-12-08T05:50:07.995Z,18.14
2022-12-08T05:53:10.045Z,18.17
2022-12-08T05:56:12.394Z,18.22
2022-12-08T05:59:14.527Z,18.27
2022-12-08T06:02:16.668Z,18.33
2022-12-08T06:05:18.847Z,18.29
2022-12-08T06:08:20.970Z,18.29
2022-12-08T06:11:29.056Z,18.32
2022-12-08T06:14:31.067Z,18.43
2022-12-08T06:17:33.257Z,18.50
2022-12-08T06:20:35.325Z,18.52
2022-12-08T06:23:37.731Z,18.49
2022-12-08T06:26:41.355Z,18.50
2022-12-08T06:29:43.378Z,18.55
2022-12-08T06:32:46.023Z,18.62
2022-12-08T06:35:48.032Z,18.63
2022-12-08T06:38:50.421Z,18.61
2022-12-08T06:42:12.126Z,18.62
2022-12-08T06:45:18.026Z,18.67
2022-12-08T06:48:20.339Z,18.71
2022-12-08T06:51:25.530Z,18.69
2022-12-08T06:54:27.829Z,18.67
2022-12-08T06:57:30.676Z,18.70
2022-12-08T07:00:32.721Z,18.78
2022-12-08T07:03:35.708Z,18.86
2022-12-08T07:06:37.810Z,18.89
2022-12-08T07:09:39.870Z,18.95
2022-12-08T07:12:41.868Z,18.92
2022-12-08T07:15:43.902Z,18.99
2022-12-08T07:18:45.989Z,19.05
2022-12-08T07:21:48.386Z,19.13
2022-12-08T07:24:50.394Z,19.14
2022-12-08T07:27:53.267Z,19.12
2022-12-08T07:30:55.333Z,19.16
2022-12-08T07:33:57.936Z,19.21
2022-12-08T07:36:59.988Z,19.31
2022-12-08T07:40:02.307Z,19.28
2022-12-08T07:43:04.745Z,19.31
2022-12-08T07:46:06.879Z,19.35
2022-12-08T07:49:08.920Z,19.39
2022-12-08T07:52:10.952Z,19.43
2022-12-08T07:55:13.003Z,19.51
2022-12-08T07:58:15.039Z,19.53
2022-12-08T08:01:28.769Z,19.58
2022-12-08T08:04:31.132Z,19.69
2022-12-08T08:07:33.313Z,19.72
2022-12-08T08:10:35.457Z,19.74
2022-12-08T08:13:37.715Z,19.74
2022-12-08T08:16:46.195Z,19.72
2022-12-08T08:19:48.250Z,19.84
2022-12-08T08:22:51.515Z,19.94
2022-12-08T08:25:53.861Z,20.00
2022-12-08T08:28:55.955Z,19.92
2022-12-08T08:31:58.152Z,19.91
2022-12-08T08:35:00.302Z,19.92
2022-12-08T08:38:02.359Z,20.04
2022-12-08T08:41:09.128Z,20.09
2022-12-08T08:44:12.717Z,20.11
2022-12-08T08:47:14.965Z,20.05
2022-12-08T08:50:17.067Z,20.04
2022-12-08T08:53:19.215Z,20.03
2022-12-08T08:56:21.360Z,20.11
2022-12-08T08:59:23.462Z,20.16
2022-12-08T09:02:25.509Z,20.12
2022-12-08T09:05:27.546Z,20.10
2022-12-08T09:08:29.651Z,20.02
2022-12-08T09:11:32.773Z,19.98
2022-12-08T09:14:35.339Z,19.97
2022-12-08T09:17:38.177Z,19.96
2022-12-08T09:20:40.254Z,19.91
2022-12-08T09:23:43.107Z,19.89
2022-12-08T09:26:45.573Z,19.88
2022-12-08T09:29:47.600Z,19.87
2022-12-08T09:32:49.625Z,19.86
2022-12-08T09:35:51.673Z,19.83
2022-12-08T09:38:54.595Z,19.79
2022-12-08T09:42:05.078Z,19.80
2022-12-08T09:45:13.647Z,19.74
2022-12-08T09:48:19.831Z,19.72
2022-12-08T09:51:27.262Z,19.69
2022-12-08T09:54:35.527Z,19.68
2022-12-08T09:57:37.690Z,19.66
2022-12-08T10:00:40.233Z,19.62
2022-12-08T10:03:42.966Z,19.62
2022-12-08T10:06:48.460Z,19.58
2022-12-08T10:10:21.064Z,19.58
2022-12-08T10:13:25.739Z,19.56
2022-12-08T10:16:40.710Z,19.55
2022-12-08T10:19:44.239Z,19.53
2022-12-08T10:22:58.874Z,19.51
2022-12-08T10:26:15.747Z,19.51
2022-12-08T10:29:18.870Z,19.46
2022-12-08T10:32:23.626Z,19.42
2022-12-08T10:35:41.763Z,19.39
2022-12-08T10:38:43.800Z,19.33
2022-12-08T10:41:45.881Z,19.31
2022-12-08T10:44:57.836Z,19.24
2022-12-08T10:48:05.961Z,19.20
2022-12-08T10:51:30.649Z,19.18
2022-12-08T10:54:38.230Z,19.16
2022-12-08T10:57:40.258Z,19.14
2022-12-08T11:00:42.430Z,19.12
2022-12-08T11:03:53.363Z,19.11
2022-12-08T11:06:55.475Z,19.09
2022-12-08T11:09:58.969Z,19.06
2022-12-08T11:13:04.197Z,19.02
2022-12-08T11:16:07.176Z,19.00
2022-12-08T11:19:17.863Z,18.99
2022-12-08T11:22:27.686Z,18.97
2022-12-08T11:25:29.944Z,18.98
2022-12-08T11:28:32.030Z,18.97
2022-12-08T11:31:35.195Z,18.97
2022-12-08T11:34:44.783Z,18.95
2022-12-08T11:37:46.870Z,18.94
2022-12-08T11:40:53.050Z,18.94
2022-12-08T11:44:23.472Z,18.92
2022-12-08T11:47:33.326Z,18.88
2022-12-08T11:50:56.049Z,18.87
2022-12-08T11:54:13.139Z,18.87
2022-12-08T11:57:20.858Z,18.88
2022-12-08T12:00:23.026Z,18.93
2022-12-08T12:03:37.411Z,18.92
2022-12-08T12:07:00.875Z,18.95
2022-12-08T12:10:25.481Z,18.94
2022-12-08T12:13:55.703Z,18.95
2022-12-08T12:17:22.967Z,18.98
2022-12-08T12:20:34.439Z,18.99
2022-12-08T12:23:42.999Z,18.99
2022-12-08T12:27:13.900Z,18.99
2022-12-08T12:30:25.124Z,19.00
2022-12-08T12:33:29.845Z,19.01
2022-12-08T12:36:32.616Z,19.01
2022-12-08T12:39:50.580Z,19.10
2022-12-08T12:42:55.420Z,19.08
2022-12-08T12:46:25.473Z,19.08
2022-12-08T12:49:40.035Z,19.13
2022-12-08T12:52:42.826Z,19.12
2022-12-08T12:55:52.638Z,19.14
2022-12-08T12:58:54.814Z,19.13
2022-12-08T13:01:57.206Z,19.16
2022-12-08T13:05:28.836Z,19.16
2022-12-08T13:08:31.878Z,19.14
2022-12-08T13:11:57.141Z,19.16
2022-12-08T13:15:05.176Z,19.13
2022-12-08T13:18:16.688Z,19.14
2022-12-08T13:21:24.405Z,19.15
2022-12-08T13:24:30.646Z,19.16
2022-12-08T13:27:34.274Z,19.15
2022-12-08T13:30:44.153Z,19.13
2022-12-08T13:33:46.660Z,19.11
2022-12-08T13:36:52.125Z,19.11
2022-12-08T13:40:10.373Z,19.12
2022-12-08T13:43:45.204Z,19.09
2022-12-08T13:47:31.486Z,19.11
2022-12-08T13:51:23.563Z,19.10
2022-12-08T13:57:30.746Z,19.11
2022-12-08T14:00:32.903Z,19.10
2022-12-08T14:04:12.467Z,19.09
2022-12-08T14:07:11.086Z,19.08
2022-12-08T14:10:26.164Z,19.08
2022-12-08T14:13:30.369Z,19.14
2022-12-08T14:16:41.928Z,19.14
2022-12-08T14:19:52.115Z,19.12
2022-12-08T14:22:55.211Z,19.14
2022-12-08T14:25:57.358Z,19.13
2022-12-08T14:28:59.755Z,19.12
2022-12-08T14:32:01.937Z,19.09
2022-12-08T14:35:07.339Z,19.06
2022-12-08T14:38:18.222Z,19.06
2022-12-08T14:41:27.277Z,19.08
2022-12-08T14:44:34.238Z,19.03
2022-12-08T14:47:36.320Z,19.02
2022-12-08T14:50:46.454Z,19.00
2022-12-08T14:53:56.134Z,18.99
2022-12-08T14:57:00.690Z,18.99
2022-12-08T15:00:11.106Z,18.99
2022-12-08T15:03:15.318Z,19.00
2022-12-08T15:06:20.851Z,19.02
2022-12-08T15:09:37.099Z,19.01
2022-12-08T15:12:39.170Z,19.02
2022-12-08T15:15:53.723Z,19.05
2022-12-08T15:19:21.833Z,19.02
2022-12-08T15:22:24.592Z,19.02
2022-12-08T15:25:26.962Z,19.02
2022-12-08T15:28:30.707Z,19.07
2022-12-08T15:31:32.971Z,19.05
2022-12-08T15:34:37.112Z,18.99
2022-12-08T15:37:39.365Z,18.96
2022-12-08T15:40:41.410Z,18.95
2022-12-08T15:43:43.434Z,18.94
2022-12-08T15:46:45.658Z,18.94
2022-12-08T15:49:49.470Z,18.98
2022-12-08T15:52:51.562Z,18.99
2022-12-08T15:56:25.711Z,19.02
2022-12-08T15:59:21.639Z,19.00
2022-12-08T16:02:25.285Z,18.96
2022-12-08T16:05:44.754Z,18.93
2022-12-08T16:09:00.741Z,18.94
2022-12-08T16:13:26.764Z,18.89
2022-12-08T16:16:01.346Z,18.88
2022-12-08T16:19:03.668Z,18.88
2022-12-08T16:25:36.332Z,18.86
2022-12-08T16:28:55.790Z,18.85
2022-12-08T16:31:57.863Z,18.84
2022-12-08T16:34:59.969Z,18.84
2022-12-08T16:38:02.139Z,18.83
2022-12-08T16:41:27.435Z,18.82
2022-12-08T16:44:29.438Z,18.81
2022-12-08T16:47:31.735Z,18.79
2022-12-08T16:50:35.039Z,18.79
2022-12-08T16:53:37.146Z,18.77
2022-12-08T16:56:39.182Z,18.77
2022-12-08T16:59:41.296Z,18.78
2022-12-08T17:02:43.568Z,18.77
2022-12-08T17:05:45.656Z,18.73
2022-12-08T17:08:47.687Z,18.73
2022-12-08T17:11:49.777Z,18.71
2022-12-08T17:14:51.768Z,18.72
2022-12-08T17:17:53.912Z,18.70
2022-12-08T17:20:55.982Z,18.69
2022-12-08T17:23:58.156Z,18.64
2022-12-08T17:27:04.304Z,18.66
2022-12-08T17:30:09.498Z,18.65
2022-12-08T17:33:11.524Z,18.65
2022-12-08T17:36:15.970Z,18.62
2022-12-08T17:39:19.131Z,18.59
2022-12-08T17:42:25.769Z,18.59
2022-12-08T17:45:27.915Z,18.57
2022-12-08T17:48:30.606Z,18.58
2022-12-08T17:51:32.636Z,18.55
2022-12-08T17:54:36.327Z,18.54
2022-12-08T17:57:38.474Z,18.54
2022-12-08T18:00:40.529Z,18.53
2022-12-08T18:03:42.581Z,18.50
2022-12-08T18:06:46.396Z,18.49
2022-12-08T18:09:48.488Z,18.49
2022-12-08T18:12:50.615Z,18.49
2022-12-08T18:15:52.703Z,18.48
2022-12-08T18:18:54.820Z,18.44
2022-12-08T18:21:56.865Z,18.44
2022-12-08T18:24:58.987Z,18.43
2022-12-08T18:28:01.035Z,18.41
2022-12-08T18:31:07.487Z,18.41
2022-12-08T18:34:09.655Z,18.41
2022-12-08T18:37:11.694Z,18.40
2022-12-08T18:40:14.608Z,18.38
2022-12-08T18:43:16.615Z,18.37
2022-12-08T18:46:18.733Z,18.38
2022-12-08T18:49:20.903Z,18.39
2022-12-08T18:52:28.385Z,18.37
2022-12-08T18:55:33.773Z,18.35
2022-12-08T18:58:35.852Z,18.34
2022-12-08T19:01:39.450Z,18.33
2022-12-08T19:04:43.778Z,18.33
2022-12-08T19:07:46.410Z,18.32
2022-12-08T19:10:48.594Z,18.28
2022-12-08T19:13:51.462Z,18.32
2022-12-08T19:16:53.644Z,18.29
2022-12-08T19:19:55.723Z,18.26
2022-12-08T19:22:57.782Z,18.28
2022-12-08T19:26:00.731Z,18.28
2022-12-08T19:29:02.767Z,18.26
2022-12-08T19:32:05.197Z,18.25
2022-12-08T19:35:07.701Z,18.25
2022-12-08T19:38:09.784Z,18.25
2022-12-08T19:41:36.806Z,18.27
2022-12-08T19:44:54.289Z,18.24
2022-12-08T19:47:56.522Z,18.24
2022-12-08T19:50:58.779Z,18.22
2022-12-08T19:54:00.845Z,18.20
2022-12-08T19:57:02.996Z,18.22
2022-12-08T20:00:06.453Z,18.22
2022-12-08T20:03:08.773Z,18.22
2022-12-08T20:06:16.561Z,18.18
2022-12-08T20:09:19.340Z,18.20
2022-12-08T20:12:21.445Z,18.19
2022-12-08T20:15:23.551Z,18.17
2022-12-08T20:18:25.757Z,18.18
2022-12-08T20:21:28.535Z,18.13
2022-12-08T20:24:30.665Z,18.15
2022-12-08T20:27:33.501Z,18.13
2022-12-08T20:30:39.428Z,18.12
2022-12-08T20:33:41.794Z,18.14
2022-12-08T20:36:44.395Z,18.12
2022-12-08T20:39:46.574Z,18.13
2022-12-08T20:42:49.554Z,18.09
2022-12-08T20:45:51.918Z,18.12
2022-12-08T20:48:55.134Z,18.00
2022-12-08T20:51:57.254Z,18.06
2022-12-08T20:54:59.386Z,18.05
2022-12-08T20:58:02.624Z,18.07
2022-12-08T21:01:09.867Z,18.07
2022-12-08T21:04:12.949Z,18.08
2022-12-08T21:07:15.301Z,18.05
2022-12-08T21:10:17.395Z,18.06
2022-12-08T21:13:19.449Z,18.03
2022-12-08T21:16:21.710Z,18.04
2022-12-08T21:19:26.025Z,18.06
2022-12-08T21:22:28.315Z,18.03
2022-12-08T21:25:30.612Z,18.02
2022-12-08T21:28:32.761Z,17.99
2022-12-08T21:31:36.252Z,18.02
2022-12-08T21:34:38.531Z,17.98
2022-12-08T21:37:40.724Z,17.97
2022-12-08T21:40:42.892Z,17.98
2022-12-08T21:43:45.053Z,17.96
2022-12-08T21:46:47.410Z,17.95
2022-12-08T21:49:49.760Z,17.97
2022-12-08T21:52:51.948Z,17.96
2022-12-08T21:55:54.055Z,17.94
2022-12-08T21:58:56.236Z,17.93
2022-12-08T22:01:58.678Z,17.90
2022-12-08T22:05:00.921Z,17.89
2022-12-08T22:08:03.148Z,17.89
2022-12-08T22:11:06.053Z,17.90
2022-12-08T22:14:13.861Z,17.87
2022-12-08T22:17:17.484Z,17.84
2022-12-08T22:20:19.793Z,17.87
2022-12-08T22:23:22.232Z,17.84
2022-12-08T22:26:24.530Z,17.81
2022-12-08T22:29:26.677Z,17.82
2022-12-08T22:32:28.969Z,17.80
2022-12-08T22:35:31.153Z,17.79
2022-12-08T22:38:33.576Z,17.78
2022-12-08T22:41:36.138Z,17.75
2022-12-08T22:44:38.422Z,17.74
2022-12-08T22:47:40.642Z,17.74
2022-12-08T22:50:43.531Z,17.74
2022-12-08T22:53:46.639Z,17.72
2022-12-08T22:56:48.755Z,17.70
2022-12-08T22:59:50.857Z,17.72
2022-12-08T23:02:52.890Z,17.72
2022-12-08T23:05:55.325Z,17.68
2022-12-08T23:08:57.959Z,17.65
2022-12-08T23:12:00.097Z,17.66
2022-12-08T23:15:02.249Z,17.64
2022-12-08T23:18:05.045Z,17.62
2022-12-08T23:21:14.796Z,17.63
2022-12-08T23:24:16.840Z,17.61
2022-12-08T23:27:19.154Z,17.61
2022-12-08T23:30:21.283Z,17.58
2022-12-08T23:33:23.407Z,17.58
2022-12-08T23:36:28.434Z,17.54
2022-12-08T23:39:30.736Z,17.56
2022-12-08T23:42:33.012Z,17.53
2022-12-08T23:45:35.332Z,17.51
2022-12-08T23:48:37.483Z,17.51
2022-12-08T23:51:39.627Z,17.49
2022-12-08T23:54:41.844Z,17.48
2022-12-08T23:57:44.083Z,17.47
